Home > Products > Valid Products > MTR

000
SAUS45 KRIW 241957
MTRP60
METAR KP60 241956Z AUTO VRB06G16KT 21/M01 A3027 RMK AO1 PK WND
29026/1902 SLP165 T02111006





000
SAUS45 KRIW 241857
MTRP60
METAR KP60 241856Z AUTO 26008G15KT 170V310 21/00 A3027 RMK AO1
SLP166 T02110000





000
SAUS45 KRIW 241757
MTRP60
METAR KP60 241756Z AUTO 25009G21KT 210V300 20/M02 A3027 RMK AO1
SLP165 T02001017 10206 20056 53003





000
SAUS45 KRIW 241657
MTRP60
METAR KP60 241656Z AUTO 26007G17KT 200V300 21/00 A3026 RMK AO1
SLP158 T02060000





000
SAUS45 KRIW 241557
MTRP60
METAR KP60 241556Z AUTO 24008G16KT 150V340 20/M01 A3025 RMK AO1
SLP151 T02001011





000
SAUS45 KRIW 241459
MTRP60
METAR KP60 241456Z AUTO VRB04KT 18/01 A3025 RMK AO1 SLP147 T01830006
58001





000
SAUS45 KRIW 241358
MTRP60
METAR KP60 241356Z AUTO 00000KT 12/07 A3026 RMK AO1 SLP148 T01220067





000
SAUS45 KRIW 241258
MTRP60
METAR KP60 241256Z AUTO 00000KT 06/03 A3026 RMK AO1 SLP160 T00610033





000
SAUS45 KRIW 241158
MTRP60
METAR KP60 241156Z AUTO 00000KT 06/03 A3026 RMK AO1 SLP157 T00560033
10100 20056 53002





000
SAUS45 KRIW 241058
MTRP60
METAR KP60 241056Z AUTO 30003KT 06/03 A3026 RMK AO1 SLP156 T00610033





000
SAUS45 KRIW 240957
MTRP60
METAR KP60 240956Z AUTO 00000KT 07/04 A3025 RMK AO1 SLP151 T00720039





000
SAUS45 KRIW 240857
MTRP60
METAR KP60 240856Z AUTO 31003KT 07/04 A3025 RMK AO1 SLP152 T00720039
56005





000
SAUS45 KRIW 240757
MTRP60
METAR KP60 240756Z AUTO 00000KT 08/03 A3026 RMK AO1 SLP151 T00830033





000
SAUS45 KRIW 240657
MTRP60
METAR KP60 240656Z AUTO 30003KT 09/03 A3026 RMK AO1 SLP154 T00890033
402670061





000
SAUS45 KRIW 240557
MTRP60
METAR KP60 240556Z AUTO 00000KT 10/04 A3027 RMK AO1 SLP156 T01000039
10267 20100 58009





000
SAUS45 KRIW 240457
MTRP60
METAR KP60 240456Z AUTO 00000KT 12/05 A3029 RMK AO1 SLP158 T01170050





000
SAUS45 KRIW 240358
MTRP60
METAR KP60 240356Z AUTO 31003KT 13/06 A3031 RMK AO1 SLP173 T01330056





000
SAUS45 KRIW 240257
MTRP60
METAR KP60 240256Z AUTO 31005KT 17/06 A3030 RMK AO1 SLP162 T01720056
56010





000
SAUS45 KRIW 240158
MTRP60
METAR KP60 240156Z AUTO 00000KT 23/04 A3031 RMK AO1 SLP163 T02330039





000
SAUS45 KRIW 240057
MTRP60
METAR KP60 240056Z AUTO VRB04KT 25/02 A3032 RMK AO1 SLP170 T02500017





000
SAUS45 KRIW 232358
MTRP60
METAR KP60 232356Z AUTO 27/02 A3034 RMK AO1 SLP175 T02670017 10267
20239 58018





000
SAUS45 KRIW 232257
MTRP60
METAR KP60 232256Z AUTO 26007G16KT 150V030 26/01 A3037 RMK AO1
SLP192 T02610006





000
SAUS45 KRIW 232158
MTRP60
METAR KP60 232156Z AUTO 24007KT 200V290 26/M01 A3039 RMK AO1 SLP203
T02611011





000
SAUS45 KRIW 232057
MTRP60
METAR KP60 232056Z AUTO VRB05G15KT 26/M01 A3041 RMK AO1 SLP207
T02561011 55005





000
SAUS45 KRIW 231957
MTRP60
METAR KP60 231956Z AUTO 25008KT 210V310 26/M01 A3041 RMK AO1 SLP207
T02611006





000
SAUS45 KRIW 231857
MTRP60
METAR KP60 231856Z AUTO VRB05KT 25/00 A3041 RMK AO1 SLP209 T02500000





000
SAUS45 KRIW 231758
MTRP60
METAR KP60 231756Z AUTO VRB06KT 24/02 A3042 RMK AO1 SLP213 T02440017
10244 20094 58001





000
SAUS45 KRIW 231658
MTRP60
METAR KP60 231656Z AUTO VRB05KT 23/01 A3043 RMK AO1 SLP211 T02330011





000
SAUS45 KRIW 231558
MTRP60
METAR KP60 231556Z AUTO VRB03KT 20/07 A3043 RMK AO1 SLP220 T02000067





000
SAUS45 KRIW 231458
MTRP60
METAR KP60 231456Z AUTO 00000KT 19/05 A3043 RMK AO1 SLP212 T01890050
56002





000
SAUS45 KRIW 231357
MTRP60
METAR KP60 231356Z AUTO 00000KT 14/09 A3043 RMK AO1 SLP211 T01390094





000
SAUS45 KRIW 231257
MTRP60
METAR KP60 231256Z AUTO VRB03KT 12/06 A3042 RMK AO1 SLP209 T01170056





000
SAUS45 KRIW 231157
MTRP60
METAR KP60 231156Z AUTO 00000KT 10/06 A3044 RMK AO1 SLP220 T01000056
10111 20061 55004





000
SAUS45 KRIW 231057
MTRP60
METAR KP60 231056Z AUTO VRB03KT 08/05 A3043 RMK AO1 SLP216 T00780050





000
SAUS45 KRIW 230957
MTRP60
METAR KP60 230956Z AUTO 30003KT 06/04 A3042 RMK AO1 SLP219 T00610044





000
SAUS45 KRIW 230857
MTRP60
METAR KP60 230856Z AUTO 29003KT 07/05 A3045 RMK AO1 SLP231 T00720050
58007





000
SAUS45 KRIW 230757
MTRP60
METAR KP60 230756Z AUTO 00000KT 07/04 A3046 RMK AO1 SLP233 T00720044





000
SAUS45 KRIW 230658
MTRP60
METAR KP60 230656Z AUTO 31003KT 08/05 A3047 RMK AO1 SLP244 T00780050
402440039





000
SAUS45 KRIW 230558
MTRP60
METAR KP60 230556Z AUTO 00000KT 09/06 A3048 RMK AO1 SLP240 T00890056
10228 20089 50000





000
SAUS45 KRIW 230458
MTRP60
METAR KP60 230456Z AUTO 00000KT 11/06 A3048 RMK AO1 SLP241 T01110061





000
SAUS45 KRIW 230358
MTRP60
METAR KP60 230356Z AUTO 29003KT 12/07 A3048 RMK AO1 SLP246 T01220067





000
SAUS45 KRIW 230258
MTRP60
METAR KP60 230256Z AUTO 00000KT 16/09 A3048 RMK AO1 SLP240 T01560089
55004





000
SAUS45 KRIW 230158
MTRP60
METAR KP60 230156Z AUTO 00000KT 22/05 A3047 RMK AO1 SLP238 T02170050





000
SAUS45 KRIW 230058
MTRP60
METAR KP60 230056Z AUTO 00000KT 23/04 A3048 RMK AO1 SLP247 T02280039





000
SAUS45 KRIW 222358
MTRP60
METAR KP60 222356Z AUTO VRB04KT 22/04 A3049 RMK AO1 SLP254 T02220044
10244 20189 55001





000
SAUS45 KRIW 222258
MTRP60
METAR KP60 222256Z AUTO 28007KT 24/03 A3049 RMK AO1 SLP247 T02390028





000
SAUS45 KRIW 222157
MTRP60
METAR KP60 222156Z AUTO 23008KT 180V280 23/03 A3049 RMK AO1 SLP248
T02330033





000
SAUS45 KRIW 222057
MTRP60
METAR KP60 222056Z AUTO 22008KT 170V270 23/02 A3050 RMK AO1 SLP250
T02280022 56004





000
SAUS45 KRIW 221958
MTRP60
METAR KP60 221956Z AUTO 23/04 A3050 RMK AO1 SLP248 T02280039





000
SAUS45 KRIW 221858
MTRP60
METAR KP60 221856Z AUTO VRB04KT 19/07 A3050 RMK AO1 SLP255 T01940067





000
SAUS45 KRIW 221758
MTRP60
METAR KP60 221756Z AUTO VRB03KT 21/06 A3051 RMK AO1 SLP252 T02060061
10206 20039 53007





000
SAUS45 KRIW 221657
MTRP60
METAR KP60 221656Z AUTO VRB05KT 19/06 A3050 RMK AO1 SLP252 T01890056





000
SAUS45 KRIW 221557
MTRP60
METAR KP60 221556Z AUTO 10005KT 16/07 A3049 RMK AO1 SLP254 T01610072





000
SAUS45 KRIW 221457
MTRP60
METAR KP60 221456Z AUTO 00000KT 14/08 A3049 RMK AO1 SLP252 T01440078
51013





000
SAUS45 KRIW 221357
MTRP60
METAR KP60 221356Z AUTO 00000KT 08/07 A3047 RMK AO1 SLP265 T00830072





000
SAUS45 KRIW 221257
MTRP60
METAR KP60 221256Z AUTO 32003KT 05/04 A3046 RMK AO1 SLP268 T00500044





000
SAUS45 KRIW 221157
MTRP60
METAR KP60 221156Z AUTO 32004KT 04/04 A3044 RMK AO1 SLP251 70007
T00440039 10089 20044 50002





000
SAUS45 KRIW 221058
MTRP60
METAR KP60 221056Z AUTO 30003KT 05/04 A3044 RMK AO1 SLP240 T00500044





000
SAUS45 KRIW 220958
MTRP60
METAR KP60 220956Z AUTO 00000KT 06/05 A3043 RMK AO1 SLP231 T00560050





000
SAUS45 KRIW 220858
MTRP60
METAR KP60 220856Z AUTO 28003KT 06/06 A3043 RMK AO1 SLP230 T00610056
53004





000
SAUS45 KRIW 220757
MTRP60
METAR KP60 220756Z AUTO 31003KT 07/06 A3041 RMK AO1 SLP226 T00720061





000
SAUS45 KRIW 220657
MTRP60
METAR KP60 220656Z AUTO 00000KT 08/07 A3042 RMK AO1 SLP229 T00780072
402220078





000
SAUS45 KRIW 220557
MTRP60
METAR KP60 220556Z AUTO 00000KT 09/08 A3042 RMK AO1 SLP227 60007
T00890083 10156 20089 50008





000
SAUS45 KRIW 220457
MTRP60
METAR KP60 220456Z AUTO VRB03KT 09/08 A3043 RMK AO1 SLP232 P0002
T00940083





000
SAUS45 KRIW 220357
MTRP60
METAR KP60 220356Z AUTO 00000KT 10/09 A3039 RMK AO1 SLP216 T01000089





000
SAUS45 KRIW 220257
MTRP60
METAR KP60 220256Z AUTO 00000KT 12/09 A3039 RMK AO1 SLP214 P0002
60005 T01170094 52015





000
SAUS45 KRIW 220157
MTRP60
METAR KP60 220156Z AUTO 33003KT 12/09 A3037 RMK AO1 SLP214 T01170089





000
SAUS45 KRIW 220057
MTRP60
METAR KP60 220056Z AUTO 00000KT 11/08 A3035 RMK AO1 SLP215 P0003
T01110078





000
SAUS45 KRIW 212357
MTRP60
METAR KP60 212356Z AUTO 15/07 A3033 RMK AO1 SLP199 T01500067 10222
20150 53011





000
SAUS45 KRIW 212257
MTRP60
METAR KP60 212256Z AUTO 24007G19KT 170V300 21/03 A3029 RMK AO1
SLP168 T02060028





000
SAUS45 KRIW 212158
MTRP60
METAR KP60 212156Z AUTO 20013G28KT 160V250 21/03 A3029 RMK AO1 PK
WND 20028/2155 SLP160 T02110033





000
SAUS45 KRIW 212058
MTRP60
METAR KP60 212056Z AUTO VRB06G20KT 21/04 A3029 RMK AO1 PK WND
21027/2038 SLP157 T02110039 58003





    US Dept of Commerce
    National Oceanic and Atmospheric Administration
    National Weather Service
    1325 East West Highway
    Silver Spring, MD 20910
    Page Author: NWS Internet Services Team
Disclaimer
Information Quality
Credits
Glossary
Privacy Policy
Freedom of Information Act (FOIA)
About Us
Career Opportunities